Airfield :
LOGIN :

Register | Disclaimer

   EN    FR    IT 

 










Legend :    VFR   Marginal VFR   IFR   Intensive IFR   Very Intensive IFR
Visi :
Ceiling :
>= 8 km
>= 3000ft
5 to 8 km
1000 to 3000 ft
1500m to 5 km
500 to 1000 ft
800 to 1500m
200 to 500 ft
< 800m
< 200 ft
Symbols :   Thunderstorms  Fog  Heavy snow  Heavy precipitations  Wind > 20 kt
SIGMETs :     Misc.  Thunderstorms  Icing  Turbulence  Mountain Waves  Volcanic Ashes







- Airport Elevation : 1161 ft
- IATA code : RJL


LELO - Logroño-Agoncillo

CURRENT METAR :
  • 190230Z AUTO 27008KT 240V300 9999 FEW048 05/01 Q1016

EXPIRED METARs :
  • 190200Z AUTO 26010KT 9999 BKN039/// 05/01 Q1016
  • 190130Z AUTO 25010KT 220V280 9999 SCT046 OVC050 06/01 Q1016
  • 190100Z AUTO 25009KT 9999 OVC045 06/01 Q1016
  • 190030Z AUTO 25012KT 9999 BKN046 OVC050 06/01 Q1016
  • 190000Z AUTO 26010KT 9999 BKN058 OVC067 06/01 Q1016
  • 182330Z AUTO 25010KT 9999 BKN060 BKN070 06/01 Q1017

TAF TAF LELO
Valid from the 19 at 03:00 until the 19 at 12:00 UTC


190200Z 1903/1912 VRB05KT 9999 BKN040
TEMPO 1903/1907 27010KT
No reported NOTAMs for that airfield.



MET'MAP, your aeronautical weather chart ! - Copyright ORBIFLY December 2007 - Disclaimer

ORBIFLY MET'MAP TEAM :

Programming & Development : Alexandra Zaïnal
Concept & Development : Baudouin d'Aumeries
Co-Development & Prog : Marc-Olivier Méhu
Technical & hardware support : Manuel Goepfert

Contact : metmap@orbifly.com




SOURCES & CREDITS :

   NOAA